Time;durP1;ratioP1;P1;durP2;ratioP2;P2;SDS_P1;SDS_P2;PMS_P1;PMS_P2;Temp;Humidity;BMP_temperature;BMP_pressure;BME280_temperature;BME280_humidity;BME280_pressure;Samples;Min_cycle;Max_cycle;Signal;HPM_P1;HPM_P2
2022/12/27 00:01:20;;;;;;;0.00;0.00;;;6.10;99.90;;;;;;5052424;28;20182;-62
2022/12/27 00:03:46;;;;;;;0.00;0.00;;;6.10;99.90;;;;;;5052484;28;20181;-62
2022/12/27 00:06:16;;;;;;;0.00;0.00;;;6.00;99.90;;;;;;5052279;28;20663;-62
2022/12/27 00:08:43;;;;;;;0.00;0.00;;;6.00;99.90;;;;;;5051825;28;20189;-62
2022/12/27 00:11:11;;;;;;;0.00;0.00;;;5.90;99.90;;;;;;5051594;28;20182;-62
2022/12/27 00:13:37;;;;;;;0.00;0.00;;;5.80;99.90;;;;;;5049374;28;20197;-61
2022/12/27 00:16:10;;;;;;;0.00;0.00;;;5.80;99.90;;;;;;5051380;28;20215;-62
2022/12/27 00:18:37;;;;;;;0.00;0.00;;;5.70;99.90;;;;;;5051593;28;20188;-62
2022/12/27 00:21:04;;;;;;;0.00;0.00;;;5.60;99.90;;;;;;5048386;28;20235;-62
2022/12/27 00:23:32;;;;;;;0.00;0.00;;;5.50;99.90;;;;;;5051922;28;20655;-62
2022/12/27 00:26:06;;;;;;;0.00;0.00;;;5.50;99.90;;;;;;5051829;28;20653;-62
2022/12/27 00:28:33;;;;;;;0.00;0.00;;;5.40;99.90;;;;;;5052398;28;20260;-61
2022/12/27 00:30:59;;;;;;;0.00;0.00;;;5.40;99.90;;;;;;5052293;28;20272;-62
2022/12/27 00:33:27;;;;;;;0.00;0.00;;;5.30;99.90;;;;;;5052147;28;20165;-61
2022/12/27 00:35:52;;;;;;;0.00;0.00;;;5.20;99.90;;;;;;5052232;28;20291;-62
2022/12/27 00:38:18;;;;;;;0.00;0.00;;;5.20;99.90;;;;;;5052149;28;20166;-62
2022/12/27 00:40:44;;;;;;;0.00;0.00;;;5.10;99.90;;;;;;5051874;28;20213;-62
2022/12/27 00:43:09;;;;;;;0.00;0.00;;;5.10;99.90;;;;;;5051410;28;20547;-62
2022/12/27 00:45:35;;;;;;;0.00;0.00;;;5.00;99.90;;;;;;5051880;28;20204;-62
2022/12/27 00:48:00;;;;;;;0.00;0.00;;;5.00;99.90;;;;;;5051578;28;20692;-62
2022/12/27 00:50:26;;;;;;;0.00;0.00;;;5.00;99.90;;;;;;5050406;28;20197;-62
2022/12/27 00:52:51;;;;;;;0.00;0.00;;;4.90;99.90;;;;;;5051290;28;20256;-62
2022/12/27 00:55:17;;;;;;;0.00;0.00;;;4.90;99.90;;;;;;5049236;28;20614;-62
2022/12/27 00:57:43;;;;;;;0.15;0.15;;;4.80;99.90;;;;;;5051605;28;20182;-62
2022/12/27 01:00:09;;;;;;;0.00;0.00;;;4.80;99.90;;;;;;5051151;28;20185;-62
2022/12/27 01:02:35;;;;;;;0.00;0.00;;;4.70;99.90;;;;;;5051633;28;20256;-62
2022/12/27 01:05:01;;;;;;;0.00;0.00;;;4.70;99.90;;;;;;5051132;28;20272;-63
2022/12/27 01:07:26;;;;;;;0.00;0.00;;;4.60;99.90;;;;;;5051393;28;20536;-62
2022/12/27 01:09:52;;;;;;;0.00;0.00;;;4.60;99.90;;;;;;5051275;28;20645;-62
2022/12/27 01:12:17;;;;;;;0.00;0.00;;;4.60;99.90;;;;;;5051476;28;20221;-62
2022/12/27 01:14:43;;;;;;;0.00;0.00;;;4.60;99.90;;;;;;5051571;28;20177;-62
2022/12/27 01:17:08;;;;;;;0.00;0.00;;;4.60;99.90;;;;;;5051003;28;20174;-62
2022/12/27 01:19:35;;;;;;;0.00;0.00;;;4.60;99.90;;;;;;5051490;28;20193;-62
2022/12/27 01:22:02;;;;;;;0.00;0.00;;;4.60;99.90;;;;;;5051223;28;20259;-63
2022/12/27 01:24:27;;;;;;;0.00;0.00;;;4.60;99.90;;;;;;5051238;28;20664;-62
2022/12/27 01:26:53;;;;;;;0.00;0.00;;;4.50;99.90;;;;;;5051049;28;20273;-62
2022/12/27 01:29:18;;;;;;;0.00;0.00;;;4.50;99.90;;;;;;5051136;28;20181;-62
2022/12/27 01:31:44;;;;;;;0.00;0.00;;;4.50;99.90;;;;;;5051511;28;20188;-62
2022/12/27 01:34:10;;;;;;;0.00;0.00;;;4.50;99.90;;;;;;5051067;28;20186;-63
2022/12/27 01:36:35;;;;;;;0.00;0.00;;;4.50;99.90;;;;;;5049917;28;20699;-62
2022/12/27 01:39:01;;;;;;;0.00;0.00;;;4.50;99.90;;;;;;5051110;28;20189;-63
2022/12/27 01:44:49;;;;;;;0.00;0.00;;;4.50;99.90;;;;;;5051350;28;20691;-62
2022/12/27 01:47:15;;;;;;;0.00;0.00;;;4.50;99.90;;;;;;5051092;28;20186;-62
2022/12/27 01:50:08;;;;;;;0.00;0.00;;;4.50;99.90;;;;;;5051051;28;20177;-62
2022/12/27 01:52:43;;;;;;;0.00;0.00;;;4.40;99.90;;;;;;5051106;28;20182;-62
2022/12/27 01:55:19;;;;;;;0.00;0.00;;;4.40;99.90;;;;;;5050978;28;20303;-63
2022/12/27 01:57:46;;;;;;;0.00;0.00;;;4.40;99.90;;;;;;5050794;28;20170;-63
2022/12/27 02:00:12;;;;;;;0.00;0.00;;;4.40;99.90;;;;;;5051379;28;20208;-62
2022/12/27 02:02:39;;;;;;;0.00;0.00;;;4.30;99.90;;;;;;5050914;28;20649;-62
2022/12/27 02:05:05;;;;;;;0.00;0.00;;;4.40;99.90;;;;;;5051311;28;20185;-63
2022/12/27 02:07:42;;;;;;;0.00;0.00;;;4.40;99.90;;;;;;5054472;28;20170;-62
2022/12/27 02:10:07;;;;;;;0.00;0.00;;;4.30;99.90;;;;;;5048267;28;20190;-62
2022/12/27 02:12:33;;;;;;;0.00;0.00;;;4.30;99.90;;;;;;5049988;28;20232;-62
2022/12/27 02:15:00;;;;;;;0.00;0.00;;;4.20;99.90;;;;;;5054251;28;20246;-62
2022/12/27 02:17:29;;;;;;;0.00;0.00;;;4.20;99.90;;;;;;5054700;28;20194;-62
2022/12/27 02:20:08;;;;;;;0.00;0.00;;;4.20;99.90;;;;;;5054541;28;20173;-62
2022/12/27 02:25:49;;;;;;;0.00;0.00;;;4.20;99.90;;;;;;5054640;28;20227;-62
2022/12/27 02:28:41;;;;;;;0.00;0.00;;;4.20;99.90;;;;;;5054506;28;20329;-63
2022/12/27 02:31:15;;;;;;;0.00;0.00;;;4.10;99.90;;;;;;5054178;28;20235;-62
2022/12/27 02:33:45;;;;;;;0.00;0.00;;;4.10;99.90;;;;;;5054432;28;20637;-62
2022/12/27 02:36:19;;;;;;;0.00;0.00;;;4.10;99.90;;;;;;5054389;28;20576;-62
2022/12/27 02:38:50;;;;;;;0.00;0.00;;;4.10;99.90;;;;;;5054398;28;20213;-63
2022/12/27 02:53:10;;;;;;;0.00;0.00;;;4.00;99.90;;;;;;5054074;28;20184;-62
2022/12/27 02:58:48;;;;;;;0.00;0.00;;;4.10;99.90;;;;;;5054033;28;20280;-62
2022/12/27 03:04:47;;;;;;;0.00;0.00;;;4.10;99.90;;;;;;5053888;28;20238;-62
2022/12/27 03:07:34;;;;;;;0.00;0.00;;;4.00;99.90;;;;;;5053825;28;20184;-62
2022/12/27 03:16:21;;;;;;;0.00;0.00;;;4.00;99.90;;;;;;5053196;28;20231;-62
2022/12/27 03:19:11;;;;;;;0.00;0.00;;;4.00;99.90;;;;;;5052234;28;20178;-62
2022/12/27 03:27:30;;;;;;;0.00;0.00;;;3.80;99.90;;;;;;5053615;28;20207;-62
2022/12/27 03:38:45;;;;;;;0.00;0.00;;;3.70;99.90;;;;;;5053140;28;20526;-62
2022/12/27 03:44:23;;;;;;;0.00;0.00;;;3.60;99.90;;;;;;5053303;28;20181;-62
2022/12/27 03:46:56;;;;;;;0.00;0.00;;;3.60;99.90;;;;;;5053063;28;20181;-63
2022/12/27 03:49:43;;;;;;;0.10;0.10;;;3.60;99.90;;;;;;5052982;28;20170;-62
2022/12/27 03:52:40;;;;;;;0.00;0.00;;;3.60;99.90;;;;;;5052896;28;20174;-62
2022/12/27 03:55:07;;;;;;;0.00;0.00;;;3.60;99.90;;;;;;5050487;28;20283;-62
2022/12/27 03:57:33;;;;;;;0.20;0.20;;;3.50;99.90;;;;;;5051121;28;20555;-62
2022/12/27 03:59:58;;;;;;;0.00;0.00;;;3.50;99.90;;;;;;5052092;28;20268;-62
2022/12/27 04:02:24;;;;;;;0.00;0.00;;;3.50;99.90;;;;;;5052474;28;20251;-62
2022/12/27 04:04:49;;;;;;;0.00;0.00;;;3.40;99.90;;;;;;5052079;28;20203;-62
2022/12/27 04:07:15;;;;;;;0.00;0.00;;;3.40;99.90;;;;;;5052778;28;20218;-63
2022/12/27 04:37:04;;;;;;;0.00;0.00;;;3.40;99.90;;;;;;5052098;28;20224;-62
2022/12/27 04:39:30;;;;;;;0.10;0.10;;;3.40;99.90;;;;;;5051479;28;20577;-63
2022/12/27 04:55:57;;;;;;;0.00;0.00;;;3.40;99.90;;;;;;5052113;28;20224;-62
2022/12/27 04:58:22;;;;;;;0.00;0.00;;;3.40;99.90;;;;;;5052125;28;20169;-62
2022/12/27 05:03:33;;;;;;;0.00;0.00;;;3.40;99.90;;;;;;5052210;28;20227;-62
2022/12/27 05:06:00;;;;;;;0.00;0.00;;;3.40;99.90;;;;;;5051938;28;20264;-62
2022/12/27 05:14:00;;;;;;;0.00;0.00;;;3.30;99.90;;;;;;5050347;28;20416;-62
2022/12/27 05:16:39;;;;;;;0.00;0.00;;;3.30;99.90;;;;;;5058860;28;20244;-62
2022/12/27 05:19:08;;;;;;;0.00;0.00;;;3.30;99.90;;;;;;5051699;28;20256;-63
2022/12/27 05:25:33;;;;;;;0.00;0.00;;;3.30;99.90;;;;;;5051749;28;20675;-62
2022/12/27 05:27:15;;;;;;;0.00;0.00;;;3.30;99.90;;;;;;5051475;28;20590;-62
2022/12/27 05:29:41;;;;;;;0.32;0.32;;;3.30;99.90;;;;;;5051297;28;20260;-62
2022/12/27 05:32:06;;;;;;;0.00;0.00;;;3.30;99.90;;;;;;5049884;28;20683;-62
2022/12/27 05:34:32;;;;;;;0.10;0.10;;;3.30;99.90;;;;;;5051536;28;20189;-62
2022/12/27 05:36:57;;;;;;;0.00;0.00;;;3.20;99.90;;;;;;5051169;28;20278;-63
2022/12/27 05:39:23;;;;;;;0.00;0.00;;;3.20;99.90;;;;;;5049340;28;20203;-62
2022/12/27 05:41:48;;;;;;;0.00;0.00;;;3.20;99.90;;;;;;5053582;28;20227;-63
2022/12/27 05:44:14;;;;;;;0.00;0.00;;;3.20;99.90;;;;;;5054739;28;20189;-62
2022/12/27 05:46:39;;;;;;;0.05;0.05;;;3.20;99.90;;;;;;5054842;28;20239;-62
2022/12/27 05:49:05;;;;;;;0.15;0.15;;;3.20;99.90;;;;;;5054829;28;20208;-61
2022/12/27 05:51:30;;;;;;;0.00;0.00;;;3.20;99.90;;;;;;5054937;28;20180;-62
2022/12/27 05:53:56;;;;;;;0.00;0.00;;;3.20;99.90;;;;;;5055059;28;20219;-62
2022/12/27 05:56:22;;;;;;;0.00;0.00;;;3.20;99.90;;;;;;5054696;28;20217;-62
2022/12/27 05:58:51;;;;;;;0.00;0.00;;;3.20;99.90;;;;;;5054903;28;20174;-62
2022/12/27 06:01:17;;;;;;;0.00;0.00;;;3.20;99.90;;;;;;5053699;28;20641;-62
2022/12/27 06:03:43;;;;;;;0.00;0.00;;;3.10;99.90;;;;;;5055012;28;20170;-62
2022/12/27 06:06:09;;;;;;;0.00;0.00;;;3.10;99.90;;;;;;5054852;28;20541;-62
2022/12/27 06:08:35;;;;;;;0.00;0.00;;;3.10;99.90;;;;;;5053666;28;20166;-62
2022/12/27 06:11:05;;;;;;;0.00;0.00;;;3.10;99.90;;;;;;5054556;28;20657;-61
2022/12/27 06:13:31;;;;;;;0.00;0.00;;;3.10;99.90;;;;;;5054039;28;20217;-62
2022/12/27 06:15:58;;;;;;;0.00;0.00;;;3.10;99.90;;;;;;5054414;28;20221;-62
2022/12/27 06:18:24;;;;;;;0.00;0.00;;;3.10;99.90;;;;;;5054834;28;20228;-63
2022/12/27 06:20:49;;;;;;;0.00;0.00;;;3.10;99.90;;;;;;5054414;28;20590;-63
2022/12/27 06:23:15;;;;;;;0.00;0.00;;;3.20;99.90;;;;;;5054544;28;20182;-62
2022/12/27 06:25:40;;;;;;;0.00;0.00;;;3.20;99.90;;;;;;5054558;28;20185;-61
2022/12/27 06:28:06;;;;;;;0.20;0.20;;;3.20;99.90;;;;;;5054390;28;20655;-61
2022/12/27 06:30:31;;;;;;;0.00;0.00;;;3.30;99.90;;;;;;5054588;28;20178;-61
2022/12/27 06:32:57;;;;;;;0.00;0.00;;;3.30;99.90;;;;;;5054435;28;20182;-62
2022/12/27 06:35:22;;;;;;;0.10;0.10;;;3.40;99.90;;;;;;5054351;28;20262;-62
2022/12/27 06:37:48;;;;;;;0.00;0.00;;;3.50;99.90;;;;;;5054299;28;20240;-62
2022/12/27 06:40:13;;;;;;;0.22;0.22;;;3.50;99.90;;;;;;5054271;28;20256;-62
2022/12/27 06:42:39;;;;;;;0.00;0.00;;;3.50;99.90;;;;;;5054182;28;20174;-62
2022/12/27 06:45:05;;;;;;;0.00;0.00;;;3.50;99.90;;;;;;5052906;28;20235;-62
2022/12/27 06:47:31;;;;;;;0.00;0.00;;;3.60;99.90;;;;;;5054162;28;20200;-62
2022/12/27 06:49:57;;;;;;;0.00;0.00;;;3.60;99.90;;;;;;5053916;28;20704;-62
2022/12/27 06:52:22;;;;;;;0.00;0.00;;;3.60;99.90;;;;;;5052612;28;20239;-62
2022/12/27 06:54:48;;;;;;;0.00;0.00;;;3.60;99.90;;;;;;5053972;28;20161;-62
2022/12/27 06:57:14;;;;;;;0.00;0.00;;;3.70;99.90;;;;;;5054049;28;20205;-62
2022/12/27 06:59:39;;;;;;;0.00;0.00;;;3.70;99.90;;;;;;5053696;28;20182;-61
2022/12/27 07:02:05;;;;;;;0.00;0.00;;;3.70;99.90;;;;;;5053809;28;20188;-61
2022/12/27 07:04:30;;;;;;;0.00;0.00;;;3.80;99.90;;;;;;5053523;28;20181;-61
2022/12/27 07:06:56;;;;;;;0.00;0.00;;;3.80;99.90;;;;;;5053654;28;20668;-61
2022/12/27 07:09:21;;;;;;;0.05;0.05;;;3.80;99.90;;;;;;5053762;28;20640;-61
2022/12/27 07:11:47;;;;;;;0.60;0.60;;;3.90;99.90;;;;;;5053486;28;20220;-62
2022/12/27 07:14:13;;;;;;;0.25;0.25;;;3.90;99.90;;;;;;5052406;28;20188;-62
2022/12/27 07:16:38;;;;;;;0.00;0.00;;;3.90;99.90;;;;;;5038279;28;20711;-61
2022/12/27 07:19:04;;;;;;;0.35;0.35;;;3.90;99.90;;;;;;5033620;28;20174;-62
2022/12/27 07:21:29;;;;;;;1.52;0.77;;;3.90;99.90;;;;;;5033585;28;20185;-62
2022/12/27 07:23:55;;;;;;;1.05;1.05;;;3.90;99.90;;;;;;5051019;28;20185;-62
2022/12/27 07:26:28;;;;;;;0.85;0.85;;;4.00;99.90;;;;;;5053355;28;20637;-63
2022/12/27 07:28:55;;;;;;;2.10;1.17;;;3.90;99.90;;;;;;5053383;28;20178;-62
2022/12/27 07:31:23;;;;;;;6.03;0.90;;;3.90;99.90;;;;;;5053208;28;20548;-62
2022/12/27 07:33:49;;;;;;;0.75;0.75;;;3.90;99.90;;;;;;5053114;28;20335;-63
2022/12/27 07:36:17;;;;;;;0.00;0.00;;;3.90;99.90;;;;;;5052072;28;20237;-62
2022/12/27 07:38:44;;;;;;;0.00;0.00;;;3.90;99.90;;;;;;5052309;28;20182;-63
2022/12/27 07:41:11;;;;;;;0.00;0.00;;;4.00;99.90;;;;;;5052718;28;20185;-63
2022/12/27 07:43:37;;;;;;;0.00;0.00;;;4.00;99.90;;;;;;5051699;28;20182;-63
2022/12/27 07:46:05;;;;;;;0.00;0.00;;;4.00;99.90;;;;;;5051410;28;20228;-64
2022/12/27 07:48:31;;;;;;;0.00;0.00;;;4.00;99.90;;;;;;5053139;28;20264;-61
2022/12/27 07:50:56;;;;;;;0.22;0.22;;;3.90;99.90;;;;;;5052905;28;20239;-66
2022/12/27 07:53:22;;;;;;;0.00;0.00;;;3.90;99.90;;;;;;5052732;28;20221;-66
2022/12/27 07:55:49;;;;;;;0.30;0.30;;;3.90;99.90;;;;;;5052519;28;20240;-62
2022/12/27 07:58:16;;;;;;;0.50;0.50;;;3.90;99.90;;;;;;5052887;28;20189;-64
2022/12/27 08:00:42;;;;;;;1.60;1.10;;;4.00;99.90;;;;;;5053233;28;20235;-66
2022/12/27 08:03:08;;;;;;;0.32;0.32;;;4.00;99.90;;;;;;5052229;28;20258;-67
2022/12/27 08:05:33;;;;;;;0.30;0.30;;;4.00;99.90;;;;;;5051984;28;20181;-65
2022/12/27 08:08:01;;;;;;;0.10;0.10;;;4.00;99.90;;;;;;5052668;28;20533;-66
2022/12/27 08:10:27;;;;;;;0.30;0.30;;;4.00;99.90;;;;;;5050932;28;20196;-64
2022/12/27 08:12:52;;;;;;;0.10;0.10;;;4.00;99.90;;;;;;5060465;28;20212;-65
2022/12/27 08:15:18;;;;;;;0.00;0.00;;;4.00;99.90;;;;;;5067243;28;20291;-63
2022/12/27 08:17:43;;;;;;;0.00;0.00;;;3.90;99.90;;;;;;5064225;28;20190;-63
2022/12/27 08:20:13;;;;;;;0.00;0.00;;;4.00;99.90;;;;;;5052009;28;20188;-64
2022/12/27 08:22:38;;;;;;;0.00;0.00;;;4.00;99.90;;;;;;5052623;28;20169;-60
2022/12/27 08:25:04;;;;;;;0.00;0.00;;;4.00;99.90;;;;;;5052563;28;20271;-66
2022/12/27 08:27:30;;;;;;;0.00;0.00;;;4.10;99.90;;;;;;5052351;28;20173;-64
2022/12/27 08:29:55;;;;;;;0.00;0.00;;;4.10;99.90;;;;;;5050327;28;20190;-63
2022/12/27 08:32:21;;;;;;;0.10;0.10;;;4.20;99.90;;;;;;5051268;28;20165;-63
2022/12/27 08:34:47;;;;;;;0.17;0.17;;;4.20;99.90;;;;;;5051063;28;20185;-64
2022/12/27 08:37:14;;;;;;;0.00;0.00;;;4.30;99.90;;;;;;5053280;28;20192;-64
2022/12/27 08:39:40;;;;;;;0.00;0.00;;;4.40;99.90;;;;;;5051831;28;20686;-63
2022/12/27 08:42:06;;;;;;;0.00;0.00;;;4.50;99.90;;;;;;5051521;28;20177;-64
2022/12/27 08:44:31;;;;;;;0.13;0.13;;;4.50;99.90;;;;;;5052186;28;20184;-64
2022/12/27 08:46:58;;;;;;;0.00;0.00;;;4.60;99.90;;;;;;5051484;28;20213;-64
2022/12/27 08:49:23;;;;;;;0.03;0.03;;;4.70;99.90;;;;;;5051094;28;20718;-64
2022/12/27 08:51:49;;;;;;;0.00;0.00;;;4.70;99.90;;;;;;5057922;28;20178;-65
2022/12/27 08:54:14;;;;;;;0.00;0.00;;;4.80;99.90;;;;;;5051829;28;20206;-64
2022/12/27 08:56:40;;;;;;;0.00;0.00;;;4.90;99.90;;;;;;5051757;28;20223;-64
2022/12/27 08:59:05;;;;;;;0.00;0.00;;;5.00;99.90;;;;;;5051643;28;20610;-64
2022/12/27 09:01:31;;;;;;;0.00;0.00;;;5.00;99.90;;;;;;5051473;28;20181;-64
2022/12/27 09:03:57;;;;;;;0.28;0.28;;;5.20;99.90;;;;;;5051416;28;20181;-65
2022/12/27 09:06:24;;;;;;;0.00;0.00;;;5.30;99.90;;;;;;5051740;28;20173;-64
2022/12/27 09:08:51;;;;;;;0.00;0.00;;;5.40;99.90;;;;;;5051616;28;20576;-65
2022/12/27 09:11:19;;;;;;;0.00;0.00;;;5.50;99.90;;;;;;5051572;28;20185;-65
2022/12/27 09:13:45;;;;;;;0.00;0.00;;;5.50;99.90;;;;;;5052575;28;20268;-64
2022/12/27 09:16:13;;;;;;;0.00;0.00;;;5.60;99.90;;;;;;5061430;28;20307;-64
2022/12/27 09:18:39;;;;;;;0.00;0.00;;;5.60;99.90;;;;;;5054052;28;20177;-65
2022/12/27 09:21:07;;;;;;;0.00;0.00;;;5.70;99.90;;;;;;5055491;28;20304;-65
2022/12/27 09:23:33;;;;;;;0.00;0.00;;;5.80;99.90;;;;;;5055310;28;20177;-65
2022/12/27 09:26:03;;;;;;;0.00;0.00;;;5.80;99.90;;;;;;5055363;28;20212;-64
2022/12/27 09:28:29;;;;;;;0.00;0.00;;;5.90;99.90;;;;;;5055441;28;20629;-64
2022/12/27 09:30:54;;;;;;;0.00;0.00;;;6.00;99.90;;;;;;5055123;28;20276;-64
2022/12/27 09:33:20;;;;;;;0.10;0.10;;;6.00;99.90;;;;;;5055064;28;20632;-65
2022/12/27 09:35:45;;;;;;;0.00;0.00;;;6.10;99.90;;;;;;5051430;28;20621;-64
2022/12/27 09:38:11;;;;;;;0.10;0.10;;;6.10;99.90;;;;;;5054990;28;20181;-64
2022/12/27 09:40:37;;;;;;;0.00;0.00;;;6.20;99.90;;;;;;5055188;28;20184;-64
2022/12/27 09:43:08;;;;;;;0.00;0.00;;;6.30;99.90;;;;;;5055304;28;20603;-64
2022/12/27 09:45:47;;;;;;;0.00;0.00;;;6.40;99.90;;;;;;5055228;28;20178;-64
2022/12/27 09:48:34;;;;;;;0.00;0.00;;;6.40;99.90;;;;;;5045239;28;20177;-64
2022/12/27 09:51:16;;;;;;;0.00;0.00;;;6.40;99.90;;;;;;5054817;28;20272;-64
2022/12/27 09:53:45;;;;;;;0.00;0.00;;;6.50;99.90;;;;;;5054624;28;20208;-64
2022/12/27 09:56:13;;;;;;;0.00;0.00;;;6.60;99.90;;;;;;5054889;28;20292;-65
2022/12/27 09:59:01;;;;;;;0.00;0.00;;;6.70;99.90;;;;;;5054722;28;20533;-64
2022/12/27 10:01:35;;;;;;;0.00;0.00;;;6.80;99.90;;;;;;5054863;28;20186;-64
2022/12/27 10:04:03;;;;;;;0.00;0.00;;;6.90;99.90;;;;;;5054406;28;20181;-62
2022/12/27 10:06:47;;;;;;;0.00;0.00;;;7.00;99.90;;;;;;5054693;28;20184;-62
2022/12/27 10:09:48;;;;;;;0.00;0.00;;;7.00;99.90;;;;;;5054131;28;20201;-63
2022/12/27 10:12:33;;;;;;;0.00;0.00;;;7.10;99.90;;;;;;5053437;28;20630;-62
2022/12/27 10:15:17;;;;;;;0.00;0.00;;;7.20;99.90;;;;;;5053716;28;20202;-63
2022/12/27 10:18:02;;;;;;;0.10;0.10;;;7.30;99.90;;;;;;5054131;28;20185;-62
2022/12/27 10:20:53;;;;;;;0.00;0.00;;;7.40;99.90;;;;;;5053508;28;20209;-60
2022/12/27 10:23:22;;;;;;;0.00;0.00;;;7.40;99.90;;;;;;5049910;28;20292;-64
2022/12/27 10:25:55;;;;;;;0.00;0.00;;;8.00;99.90;;;;;;5053804;28;20208;-64
2022/12/27 10:28:26;;;;;;;0.08;0.08;;;9.00;99.90;;;;;;5054111;28;20209;-63
2022/12/27 10:30:52;;;;;;;0.00;0.00;;;9.30;99.90;;;;;;5052668;28;20280;-62
2022/12/27 10:33:29;;;;;;;0.00;0.00;;;9.00;99.90;;;;;;5054044;28;20261;-64
2022/12/27 10:35:55;;;;;;;0.00;0.00;;;8.70;99.90;;;;;;5053475;28;20544;-63
2022/12/27 10:38:21;;;;;;;0.00;0.00;;;8.30;99.90;;;;;;5052455;28;20174;-64
2022/12/27 10:40:58;;;;;;;0.00;0.00;;;8.20;99.90;;;;;;5053677;28;20181;-63
2022/12/27 10:43:34;;;;;;;0.00;0.00;;;8.10;99.90;;;;;;5053791;28;20192;-61
2022/12/27 10:46:36;;;;;;;0.00;0.00;;;7.90;99.90;;;;;;5038727;28;20181;-61
2022/12/27 10:49:23;;;;;;;0.00;0.00;;;7.80;99.90;;;;;;5047577;28;20193;-62
2022/12/27 10:51:51;;;;;;;0.10;0.10;;;7.80;99.90;;;;;;5051348;28;20181;-63
2022/12/27 10:54:27;;;;;;;0.00;0.00;;;7.80;99.90;;;;;;5053276;28;20178;-61
2022/12/27 10:56:55;;;;;;;0.05;0.05;;;7.70;99.90;;;;;;5053528;28;20271;-60
2022/12/27 10:59:26;;;;;;;0.00;0.00;;;7.80;99.90;;;;;;5053465;28;20185;-60
2022/12/27 11:02:01;;;;;;;0.00;0.00;;;7.90;99.90;;;;;;5053217;28;20177;-62
2022/12/27 11:04:27;;;;;;;0.00;0.00;;;7.90;99.90;;;;;;5053210;28;20192;-62
2022/12/27 11:07:02;;;;;;;0.00;0.00;;;7.90;99.90;;;;;;5053471;28;20211;-62
2022/12/27 11:09:42;;;;;;;0.00;0.00;;;7.90;99.90;;;;;;5053085;28;20578;-62
2022/12/27 11:12:27;;;;;;;0.00;0.00;;;8.00;99.90;;;;;;5049707;28;20216;-62
2022/12/27 11:14:59;;;;;;;0.00;0.00;;;8.00;99.90;;;;;;5039076;28;20184;-62
2022/12/27 11:17:47;;;;;;;0.00;0.00;;;8.10;99.90;;;;;;5063208;28;20302;-63
2022/12/27 11:20:38;;;;;;;0.00;0.00;;;8.00;99.90;;;;;;5044040;28;20687;-62
2022/12/27 11:23:11;;;;;;;0.00;0.00;;;7.90;99.90;;;;;;5040618;28;20181;-62
2022/12/27 11:25:50;;;;;;;0.00;0.00;;;8.00;99.90;;;;;;5052827;28;20192;-62
2022/12/27 11:28:37;;;;;;;0.00;0.00;;;8.00;99.90;;;;;;5051585;28;20185;-63
2022/12/27 11:31:29;;;;;;;0.00;0.00;;;8.00;99.90;;;;;;5053055;28;20182;-62
2022/12/27 11:33:57;;;;;;;1.90;0.32;;;8.10;99.90;;;;;;5049671;28;20219;-62
2022/12/27 11:36:30;;;;;;;0.00;0.00;;;8.10;99.90;;;;;;5052506;28;20704;-62
2022/12/27 11:38:56;;;;;;;0.00;0.00;;;8.10;99.90;;;;;;5052423;28;20170;-62
2022/12/27 11:41:21;;;;;;;0.00;0.00;;;8.00;99.90;;;;;;5052217;28;20584;-62
2022/12/27 11:44:07;;;;;;;0.00;0.00;;;7.90;99.90;;;;;;5054082;28;20173;-62
2022/12/27 11:46:44;;;;;;;0.00;0.00;;;7.80;99.90;;;;;;5049589;28;20176;-63
2022/12/27 11:49:23;;;;;;;0.10;0.10;;;7.70;99.90;;;;;;5052574;28;20636;-62
2022/12/27 11:52:27;;;;;;;0.00;0.00;;;7.70;99.90;;;;;;5052364;28;20260;-62
2022/12/27 11:55:10;;;;;;;0.00;0.00;;;7.70;99.90;;;;;;5050692;28;20193;-64
2022/12/27 11:58:01;;;;;;;3.03;0.85;;;7.70;99.90;;;;;;5052818;28;20182;-62
2022/12/27 12:00:36;;;;;;;0.00;0.00;;;7.60;99.90;;;;;;5051900;28;20191;-63
2022/12/27 12:03:34;;;;;;;0.00;0.00;;;7.50;99.90;;;;;;5051646;28;20192;-63
2022/12/27 12:06:05;;;;;;;0.20;0.20;;;7.40;99.90;;;;;;5049879;28;20529;-63
2022/12/27 12:09:08;;;;;;;0.00;0.00;;;7.30;99.90;;;;;;5051699;28;20173;-62
2022/12/27 12:11:55;;;;;;;0.00;0.00;;;7.20;99.90;;;;;;5052335;28;20212;-63
2022/12/27 12:14:43;;;;;;;0.00;0.00;;;7.10;99.90;;;;;;5052169;28;20181;-62
2022/12/27 12:17:33;;;;;;;0.00;0.00;;;7.10;99.90;;;;;;5052482;28;20245;-63
2022/12/27 12:20:19;;;;;;;0.00;0.00;;;7.10;99.90;;;;;;5052300;28;20189;-63
2022/12/27 12:23:20;;;;;;;0.20;0.20;;;7.10;99.90;;;;;;5051009;28;20705;-62
2022/12/27 12:26:03;;;;;;;0.00;0.00;;;7.10;99.90;;;;;;5050898;28;20197;-63
2022/12/27 12:28:55;;;;;;;0.00;0.00;;;7.10;99.90;;;;;;5052037;28;20173;-62
2022/12/27 12:31:55;;;;;;;0.00;0.00;;;7.10;99.90;;;;;;5052002;28;20180;-63
2022/12/27 12:34:35;;;;;;;0.00;0.00;;;7.20;99.90;;;;;;5051951;28;20268;-62
2022/12/27 12:37:26;;;;;;;0.00;0.00;;;7.20;99.90;;;;;;5048873;28;20213;-62
2022/12/27 12:40:21;;;;;;;0.00;0.00;;;7.30;99.90;;;;;;5050958;28;20536;-62
2022/12/27 12:43:06;;;;;;;0.00;0.00;;;7.30;99.90;;;;;;5051602;28;20181;-62
2022/12/27 12:46:15;;;;;;;0.00;0.00;;;7.30;99.90;;;;;;5051687;28;20181;-62
2022/12/27 12:49:01;;;;;;;0.00;0.00;;;7.40;99.90;;;;;;5050394;28;20681;-62
2022/12/27 12:51:58;;;;;;;0.00;0.00;;;7.40;99.90;;;;;;5051815;28;20182;-62
2022/12/27 12:54:36;;;;;;;0.00;0.00;;;7.50;99.90;;;;;;5051367;28;20184;-62
2022/12/27 12:57:16;;;;;;;0.00;0.00;;;7.50;99.90;;;;;;5050815;28;20801;-62
2022/12/27 12:59:59;;;;;;;0.00;0.00;;;7.60;99.90;;;;;;5050725;28;20540;-64
2022/12/27 13:02:55;;;;;;;0.00;0.00;;;7.70;99.90;;;;;;5052774;28;20182;-65
2022/12/27 13:05:51;;;;;;;0.00;0.00;;;7.70;99.90;;;;;;5046061;28;20608;-62
2022/12/27 13:08:25;;;;;;;0.00;0.00;;;7.80;99.90;;;;;;5051369;28;20181;-62
2022/12/27 13:11:27;;;;;;;0.00;0.00;;;7.90;99.90;;;;;;5051687;28;20180;-63
2022/12/27 13:14:16;;;;;;;0.00;0.00;;;8.00;99.90;;;;;;5050169;28;20192;-63
2022/12/27 13:17:12;;;;;;;0.00;0.00;;;8.00;99.90;;;;;;5051135;28;20209;-63
2022/12/27 13:19:48;;;;;;;0.00;0.00;;;8.10;99.90;;;;;;5051671;28;20189;-63
2022/12/27 13:22:51;;;;;;;0.00;0.00;;;8.20;99.90;;;;;;5051373;28;20165;-63
2022/12/27 13:25:27;;;;;;;0.00;0.00;;;8.30;99.90;;;;;;5038753;28;20676;-63
2022/12/27 13:28:13;;;;;;;0.00;0.00;;;8.30;99.90;;;;;;5051517;28;20196;-64
2022/12/27 13:30:53;;;;;;;0.30;0.30;;;8.30;99.90;;;;;;5049612;28;20269;-63
2022/12/27 13:34:00;;;;;;;0.00;0.00;;;8.40;99.90;;;;;;5051250;28;20174;-63
2022/12/27 13:37:03;;;;;;;0.00;0.00;;;8.40;99.90;;;;;;5051388;28;20221;-63
2022/12/27 13:39:58;;;;;;;0.00;0.00;;;8.40;99.90;;;;;;5051663;28;20173;-63
2022/12/27 13:42:43;;;;;;;0.00;0.00;;;8.40;99.90;;;;;;5031718;28;20179;-63
2022/12/27 13:45:35;;;;;;;0.00;0.00;;;8.30;99.90;;;;;;5031686;28;20170;-63
2022/12/27 13:48:07;;;;;;;0.00;0.00;;;8.30;99.90;;;;;;5031622;28;20182;-63
2022/12/27 13:50:58;;;;;;;0.00;0.00;;;8.20;99.90;;;;;;5031692;28;20186;-63
2022/12/27 13:53:39;;;;;;;0.00;0.00;;;8.10;99.90;;;;;;5043662;28;20178;-63
2022/12/27 13:56:19;;;;;;;0.00;0.00;;;8.10;99.90;;;;;;5051431;28;20676;-63
2022/12/27 13:58:47;;;;;;;0.00;0.00;;;8.10;99.90;;;;;;5055263;28;20185;-63
2022/12/27 14:01:27;;;;;;;0.00;0.00;;;8.10;99.90;;;;;;5071521;28;20176;-63
2022/12/27 14:04:06;;;;;;;0.00;0.00;;;8.00;99.90;;;;;;5069795;28;20564;-63
2022/12/27 14:06:44;;;;;;;0.00;0.00;;;8.00;99.90;;;;;;5055043;28;20637;-64
2022/12/27 14:09:28;;;;;;;0.00;0.00;;;8.00;99.90;;;;;;5054910;28;20177;-63
2022/12/27 14:12:02;;;;;;;0.03;0.03;;;8.00;99.90;;;;;;5054805;28;20244;-63
2022/12/27 14:14:29;;;;;;;0.00;0.00;;;8.00;99.90;;;;;;5054294;28;20663;-64
2022/12/27 14:17:16;;;;;;;0.00;0.00;;;7.90;99.90;;;;;;5054031;28;20217;-64
2022/12/27 14:20:01;;;;;;;0.00;0.00;;;7.90;99.90;;;;;;5053935;28;20178;-64
2022/12/27 14:22:58;;;;;;;0.00;0.00;;;7.80;99.90;;;;;;5054226;28;20192;-64
2022/12/27 14:26:01;;;;;;;0.00;0.00;;;7.80;99.90;;;;;;5043579;28;20227;-64
2022/12/27 14:28:29;;;;;;;0.00;0.00;;;7.70;99.90;;;;;;5052344;28;20544;-63
2022/12/27 14:30:57;;;;;;;0.10;0.10;;;7.70;99.90;;;;;;5053423;28;20177;-63
2022/12/27 14:33:51;;;;;;;0.30;0.20;;;7.70;99.90;;;;;;5044711;28;20177;-63
2022/12/27 14:36:41;;;;;;;0.00;0.00;;;7.60;99.90;;;;;;5053718;28;20224;-63
2022/12/27 14:39:47;;;;;;;0.08;0.08;;;7.60;99.90;;;;;;5053876;28;20192;-63
2022/12/27 14:42:13;;;;;;;0.00;0.00;;;7.50;99.90;;;;;;5053910;28;20181;-65
2022/12/27 14:45:11;;;;;;;0.00;0.00;;;7.50;99.90;;;;;;5053780;28;20589;-65
2022/12/27 14:48:24;;;;;;;0.00;0.00;;;7.40;99.90;;;;;;5053908;28;20185;-64
2022/12/27 14:51:16;;;;;;;0.08;0.00;;;7.40;99.90;;;;;;5053059;28;20356;-64
2022/12/27 14:53:44;;;;;;;0.00;0.00;;;7.40;99.90;;;;;;5053245;28;20177;-64
2022/12/27 14:56:16;;;;;;;0.00;0.00;;;7.30;99.90;;;;;;5052715;28;20205;-64
2022/12/27 14:59:06;;;;;;;0.00;0.00;;;7.30;99.90;;;;;;5052751;28;20181;-64
2022/12/27 15:01:58;;;;;;;0.00;0.00;;;7.20;99.90;;;;;;5050868;28;20564;-64
2022/12/27 15:04:53;;;;;;;0.00;0.00;;;7.10;99.90;;;;;;5038562;28;20676;-64
2022/12/27 15:07:41;;;;;;;0.00;0.00;;;7.00;99.90;;;;;;5050619;28;20540;-64
2022/12/27 15:10:22;;;;;;;0.00;0.00;;;6.90;99.90;;;;;;5052752;28;20190;-65
2022/12/27 15:13:10;;;;;;;0.00;0.00;;;6.90;99.90;;;;;;5053222;28;20603;-62